Time;durP1;ratioP1;P1;durP2;ratioP2;P2;SDS_P1;SDS_P2;PMS_P1;PMS_P2;Temp;Humidity;BMP_temperature;BMP_pressure;BME280_temperature;BME280_humidity;BME280_pressure;Samples;Min_cycle;Max_cycle;Signal;HPM_P1;HPM_P2
2023/02/21 02:15:06;;;;;;;43.38;19.58;;;;;;;-143.48;100.00;118439.88;5095485;28;20040;-35
2023/02/21 02:17:53;;;;;;;43.22;19.63;;;;;;;-143.48;100.00;118439.88;5095103;28;20098;-35
2023/02/21 02:20:55;;;;;;;39.65;19.58;;;;;;;-143.48;100.00;118439.88;5095526;28;20020;-35
2023/02/21 02:23:53;;;;;;;40.80;19.40;;;;;;;-143.48;100.00;118439.88;5094810;28;20095;-35
2023/02/21 02:26:37;;;;;;;43.63;18.92;;;;;;;-143.48;100.00;118439.88;5077703;28;20035;-35
2023/02/21 02:29:35;;;;;;;47.47;20.15;;;;;;;-143.48;100.00;118439.88;5094925;28;20110;-35
2023/02/21 02:32:31;;;;;;;46.67;19.90;;;;;;;-143.48;100.00;118439.88;5095156;28;20020;-35
2023/02/21 02:35:02;;;;;;;43.50;19.67;;;;;;;-143.48;100.00;118439.88;5095078;28;20371;-35
2023/02/21 02:37:42;;;;;;;49.67;19.73;;;;;;;-143.48;100.00;118439.88;5095038;28;20111;-36
2023/02/21 02:40:26;;;;;;;41.78;19.38;;;;;;;-143.48;100.00;118439.88;5094961;28;20051;-35
2023/02/21 02:43:09;;;;;;;43.38;19.65;;;;;;;-143.48;100.00;118439.88;5094843;28;20020;-35
2023/02/21 02:45:47;;;;;;;;;;;;;;;-143.48;100.00;118439.88;5095169;28;20040;-35
2023/02/21 02:48:20;;;;;;;40.55;19.23;;;;;;;-143.48;100.00;118439.88;5094716;28;19961;-35
2023/02/21 02:50:48;;;;;;;42.80;19.27;;;;;;;-143.48;100.00;118439.88;5094845;28;20062;-35
2023/02/21 02:53:20;;;;;;;47.33;18.48;;;;;;;-143.48;100.00;118439.88;5094518;28;20024;-35
2023/02/21 02:55:52;;;;;;;48.20;19.80;;;;;;;-143.48;100.00;118439.88;5094748;28;20023;-35
2023/02/21 02:58:21;;;;;;;43.75;20.02;;;;;;;-143.48;100.00;118439.88;5094403;28;20035;-35
2023/02/21 03:01:01;;;;;;;44.35;20.15;;;;;;;-143.48;100.00;118439.88;5094539;28;20114;-35
2023/02/21 03:03:38;;;;;;;45.83;19.95;;;;;;;-143.48;100.00;118439.88;5094593;28;20374;-35
2023/02/21 03:06:25;;;;;;;50.97;20.45;;;;;;;-143.48;100.00;118439.88;5094075;28;20435;-35
2023/02/21 03:09:00;;;;;;;51.00;21.52;;;;;;;-143.48;100.00;118439.88;5094519;28;20355;-35
2023/02/21 03:11:26;;;;;;;49.63;21.05;;;;;;;-143.48;100.00;118439.88;5094623;28;20016;-35
2023/02/21 03:14:14;;;;;;;50.60;21.10;;;;;;;-143.48;100.00;118439.88;5094018;28;20024;-35
2023/02/21 03:16:47;;;;;;;48.08;20.92;;;;;;;-143.48;100.00;118439.88;5094278;28;20051;-35
2023/02/21 03:19:30;;;;;;;49.88;22.85;;;;;;;-143.48;100.00;118439.88;5094341;28;20343;-35
2023/02/21 03:22:00;;;;;;;44.08;22.27;;;;;;;-143.48;100.00;118439.88;5094497;28;20024;-35
2023/02/21 03:24:27;;;;;;;49.88;22.33;;;;;;;-143.48;100.00;118439.88;5094253;28;20031;-33
2023/02/21 03:26:58;;;;;;;52.25;21.77;;;;;;;-143.48;100.00;118439.88;5093978;28;20427;-33
2023/02/21 03:29:24;;;;;;;48.58;22.92;;;;;;;-143.48;100.00;118439.88;5093899;28;20028;-35
2023/02/21 03:34:41;;;;;;;52.60;22.67;;;;;;;-143.48;100.00;118439.88;5094315;28;20028;-35
2023/02/21 03:37:09;;;;;;;43.47;23.02;;;;;;;-143.48;100.00;118439.88;5093734;28;20049;-34
2023/02/21 03:39:34;;;;;;;46.88;21.85;;;;;;;-143.48;100.00;118439.88;5093557;28;20077;-34
2023/02/21 03:41:59;;;;;;;49.80;20.52;;;;;;;-143.48;100.00;118439.88;5093999;28;20459;-35
2023/02/21 03:44:25;;;;;;;51.95;21.83;;;;;;;-143.48;100.00;118439.88;5093431;28;20482;-34
2023/02/21 03:46:51;;;;;;;43.40;20.98;;;;;;;-143.48;100.00;118439.88;5093879;28;20132;-35
2023/02/21 03:49:16;;;;;;;49.72;22.60;;;;;;;-143.48;100.00;118439.88;5094170;28;20205;-34
2023/02/21 03:51:42;;;;;;;53.03;23.27;;;;;;;-143.48;100.00;118439.88;5093842;28;20027;-34
2023/02/21 03:54:07;;;;;;;45.97;21.58;;;;;;;-143.48;100.00;118439.88;5093816;28;20039;-34
2023/02/21 03:56:32;;;;;;;39.53;20.48;;;;;;;-143.48;100.00;118439.88;5094094;28;20561;-34
2023/02/21 03:58:57;;;;;;;45.35;21.02;;;;;;;-143.48;100.00;118439.88;5093525;28;20528;-33
2023/02/21 04:01:23;;;;;;;48.20;21.42;;;;;;;-143.48;100.00;118439.88;5093787;28;20119;-33
2023/02/21 04:03:49;;;;;;;41.28;21.45;;;;;;;-143.48;100.00;118439.88;5093910;28;20381;-34
2023/02/21 04:06:15;;;;;;;48.67;21.90;;;;;;;-143.48;100.00;118439.88;5093925;28;20040;-34
2023/02/21 04:08:40;;;;;;;51.95;22.27;;;;;;;-143.48;100.00;118439.88;5093468;28;20478;-34
2023/02/21 04:11:05;;;;;;;42.45;21.27;;;;;;;-143.48;100.00;118439.88;5094216;28;20059;-36
2023/02/21 04:13:31;;;;;;;47.10;21.38;;;;;;;-143.48;100.00;118439.88;5093693;28;20046;-34
2023/02/21 04:15:56;;;;;;;40.90;20.60;;;;;;;-143.48;100.00;118439.88;5093688;28;20019;-34
2023/02/21 04:18:21;;;;;;;45.90;22.65;;;;;;;-143.48;100.00;118439.88;5093315;28;20537;-34
2023/02/21 04:20:47;;;;;;;45.08;21.73;;;;;;;-143.48;100.00;118439.88;5093617;28;20027;-34
2023/02/21 04:23:17;;;;;;;48.85;22.60;;;;;;;-143.48;100.00;118439.88;5093279;28;20067;-34
2023/02/21 04:25:42;;;;;;;48.15;21.42;;;;;;;-143.48;100.00;118439.88;5093224;28;20028;-35
2023/02/21 04:28:07;;;;;;;54.80;22.52;;;;;;;-143.48;100.00;118439.88;5093519;28;20028;-34
2023/02/21 04:30:33;;;;;;;51.47;22.40;;;;;;;-143.48;100.00;118439.88;5093562;28;20437;-34
2023/02/21 04:32:58;;;;;;;46.35;22.95;;;;;;;-143.48;100.00;118439.88;5092045;28;20107;-34
2023/02/21 04:35:23;;;;;;;48.05;23.70;;;;;;;-143.48;100.00;118439.88;5093221;28;20043;-34
2023/02/21 04:37:49;;;;;;;47.47;22.77;;;;;;;-143.48;100.00;118439.88;5093394;28;20035;-34
2023/02/21 04:40:14;;;;;;;56.47;22.67;;;;;;;-143.48;100.00;118439.88;5093277;28;20028;-35
2023/02/21 04:42:39;;;;;;;45.80;23.10;;;;;;;-143.48;100.00;118439.88;5093103;28;20024;-33
2023/02/21 04:45:05;;;;;;;49.33;24.00;;;;;;;-143.48;100.00;118439.88;5092877;28;20048;-34
2023/02/21 04:47:30;;;;;;;52.92;23.98;;;;;;;-143.48;100.00;118439.88;5094005;28;20563;-34
2023/02/21 04:49:56;;;;;;;49.70;23.58;;;;;;;-143.48;100.00;118439.88;5096826;28;20063;-35
2023/02/21 04:52:21;;;;;;;55.88;24.83;;;;;;;-143.48;100.00;118439.88;5097619;28;20047;-34
2023/02/21 04:54:47;;;;;;;57.22;25.23;;;;;;;-143.48;100.00;118439.88;5097043;28;20023;-34
2023/02/21 04:57:13;;;;;;;55.35;24.95;;;;;;;-143.48;100.00;118439.88;5097028;28;20481;-34
2023/02/21 04:59:39;;;;;;;53.45;25.30;;;;;;;-143.48;100.00;118439.88;5097004;28;20020;-33
2023/02/21 05:02:05;;;;;;;56.08;25.52;;;;;;;-143.48;100.00;118439.88;5094425;28;20422;-33
2023/02/21 05:04:30;;;;;;;55.35;25.23;;;;;;;-143.48;100.00;118439.88;5094662;28;20367;-34
2023/02/21 05:06:58;;;;;;;55.92;25.92;;;;;;;-143.48;100.00;118439.88;5094834;28;20020;-34
2023/02/21 05:09:23;;;;;;;59.90;25.17;;;;;;;-143.48;100.00;118439.88;5094642;28;20115;-34
2023/02/21 05:11:49;;;;;;;54.53;27.15;;;;;;;-143.48;100.00;118439.88;5094254;28;20121;-34
2023/02/21 05:14:16;;;;;;;53.40;25.60;;;;;;;-143.48;100.00;118439.88;5094543;28;20420;-34
2023/02/21 05:16:41;;;;;;;57.33;25.65;;;;;;;-143.48;100.00;118439.88;5094508;28;20031;-34
2023/02/21 05:19:07;;;;;;;57.67;26.55;;;;;;;-143.48;100.00;118439.88;5095811;28;20031;-33
2023/02/21 05:21:37;;;;;;;57.55;26.33;;;;;;;-143.48;100.00;118439.88;5095564;28;20445;-34
2023/02/21 05:24:04;;;;;;;60.03;27.27;;;;;;;-143.48;100.00;118439.88;5094363;28;20055;-34
2023/02/21 05:26:34;;;;;;;56.97;26.25;;;;;;;-143.48;100.00;118439.88;5093924;28;20069;-34
2023/02/21 05:29:00;;;;;;;64.57;28.08;;;;;;;-143.48;100.00;118439.88;5093980;28;20028;-34
2023/02/21 05:31:25;;;;;;;56.83;26.63;;;;;;;-143.48;100.00;118439.88;5093940;28;20048;-34
2023/02/21 05:33:51;;;;;;;59.42;26.63;;;;;;;-143.48;100.00;118439.88;5094136;28;20020;-35
2023/02/21 05:36:16;;;;;;;59.00;26.33;;;;;;;-143.48;100.00;118439.88;5093926;28;20048;-34
2023/02/21 05:38:50;;;;;;;62.38;27.05;;;;;;;-143.48;100.00;118439.88;5096193;28;20055;-36
2023/02/21 05:41:16;;;;;;;65.55;27.75;;;;;;;-143.48;100.00;118439.88;5095843;28;20059;-34
2023/02/21 05:43:45;;;;;;;64.88;27.98;;;;;;;-143.48;100.00;118439.88;5095650;28;20509;-35
2023/02/21 05:46:21;;;;;;;64.50;27.63;;;;;;;-143.48;100.00;118439.88;5095819;28;20433;-35
2023/02/21 05:48:47;;;;;;;66.80;26.90;;;;;;;-143.48;100.00;118439.88;5096557;28;20062;-34
2023/02/21 05:51:13;;;;;;;58.60;27.02;;;;;;;-143.48;100.00;118439.88;5095938;28;20016;-35
2023/02/21 05:53:38;;;;;;;64.65;27.00;;;;;;;-143.48;100.00;118439.88;5095617;28;20024;-35
2023/02/21 05:56:04;;;;;;;59.85;27.38;;;;;;;-143.48;100.00;118439.88;5095491;28;20031;-35
2023/02/21 05:58:29;;;;;;;72.65;29.67;;;;;;;-143.48;100.00;118439.88;5095850;28;20020;-35
2023/02/21 06:00:54;;;;;;;66.45;27.55;;;;;;;-143.48;100.00;118439.88;5095771;28;20031;-35
2023/02/21 06:03:20;;;;;;;67.88;28.38;;;;;;;-143.48;100.00;118439.88;5095381;28;20020;-35
2023/02/21 06:05:45;;;;;;;75.45;29.15;;;;;;;-143.48;100.00;118439.88;5095606;28;20095;-36
2023/02/21 06:08:10;;;;;;;63.92;28.98;;;;;;;-143.48;100.00;118439.88;5093888;28;20030;-34
2023/02/21 06:10:35;;;;;;;67.32;28.85;;;;;;;-143.48;100.00;118439.88;5094127;28;20473;-34
2023/02/21 06:13:01;;;;;;;69.97;28.25;;;;;;;-143.48;100.00;118439.88;5094100;28;20030;-34
2023/02/21 06:15:26;;;;;;;67.32;29.17;;;;;;;-143.48;100.00;118439.88;5094689;28;20024;-34
2023/02/21 06:17:51;;;;;;;69.75;29.70;;;;;;;-143.48;100.00;118439.88;5094302;28;20398;-35
2023/02/21 06:20:17;;;;;;;62.17;27.80;;;;;;;-143.48;100.00;118439.88;5094207;28;20379;-35
2023/02/21 06:22:42;;;;;;;73.38;28.95;;;;;;;-143.48;100.00;118439.88;5094551;28;20047;-41
2023/02/21 06:25:08;;;;;;;62.85;28.90;;;;;;;-143.48;100.00;118439.88;5094918;28;20024;-34
2023/02/21 06:27:34;;;;;;;69.00;27.85;;;;;;;-143.48;100.00;118439.88;5095424;28;20035;-36
2023/02/21 06:29:59;;;;;;;62.92;27.38;;;;;;;-143.48;100.00;118439.88;5095133;28;20081;-35
2023/02/21 06:32:26;;;;;;;62.75;27.92;;;;;;;-143.48;100.00;118439.88;5095441;28;20109;-35
2023/02/21 06:34:51;;;;;;;69.72;28.42;;;;;;;-143.48;100.00;118439.88;5093506;28;20024;-37
2023/02/21 06:37:18;;;;;;;62.35;28.02;;;;;;;-143.48;100.00;118439.88;5095286;28;20481;-34
2023/02/21 06:39:44;;;;;;;65.20;27.77;;;;;;;-143.48;100.00;118439.88;5094533;28;20363;-35
2023/02/21 06:42:14;;;;;;;60.75;28.33;;;;;;;-143.48;100.00;118439.88;5094954;28;20103;-34
2023/02/21 06:44:41;;;;;;;65.95;27.67;;;;;;;-143.48;100.00;118439.88;5094393;28;20494;-34
2023/02/21 06:47:07;;;;;;;62.58;28.45;;;;;;;-143.48;100.00;118439.88;5094841;28;20111;-34
2023/02/21 06:49:32;;;;;;;60.22;28.23;;;;;;;-143.48;100.00;118439.88;5094713;28;20030;-34
2023/02/21 06:51:57;;;;;;;61.65;28.55;;;;;;;-143.48;100.00;118439.88;5094345;28;20024;-35
2023/02/21 06:54:23;;;;;;;64.32;27.35;;;;;;;-143.48;100.00;118439.88;5094401;28;20051;-34
2023/02/21 06:56:49;;;;;;;64.82;28.05;;;;;;;-143.48;100.00;118439.88;5092130;28;20047;-34
2023/02/21 06:59:14;;;;;;;57.53;28.10;;;;;;;-143.48;100.00;118439.88;5092734;28;20474;-36
2023/02/21 07:01:40;;;;;;;66.85;27.40;;;;;;;-143.48;100.00;118439.88;5092760;28;20478;-35
2023/02/21 07:04:05;;;;;;;63.05;27.42;;;;;;;-143.48;100.00;118439.88;5092601;28;20059;-34
2023/02/21 07:06:32;;;;;;;65.10;28.25;;;;;;;-143.48;100.00;118439.88;5092198;28;20019;-36
2023/02/21 07:08:57;;;;;;;59.92;27.23;;;;;;;-143.48;100.00;118439.88;5092539;28;20023;-34
2023/02/21 07:11:23;;;;;;;60.08;28.20;;;;;;;-143.48;100.00;118439.88;5091861;28;20032;-34
2023/02/21 07:13:52;;;;;;;69.95;27.42;;;;;;;-143.48;100.00;118439.88;5091870;28;20355;-34
2023/02/21 07:16:19;;;;;;;65.70;28.25;;;;;;;-143.48;100.00;118439.88;5092078;28;20041;-34
2023/02/21 07:18:45;;;;;;;64.75;28.60;;;;;;;-143.48;100.00;118439.88;5091964;28;20073;-35
2023/02/21 07:21:11;;;;;;;62.67;27.58;;;;;;;-143.48;100.00;118439.88;5091011;28;20028;-33
2023/02/21 07:23:36;;;;;;;66.35;28.27;;;;;;;-143.48;100.00;118439.88;5090803;28;20031;-34
2023/02/21 07:26:01;;;;;;;61.80;28.17;;;;;;;-143.48;100.00;118439.88;5090504;28;20028;-35
2023/02/21 07:28:27;;;;;;;64.47;28.45;;;;;;;-143.48;100.00;118439.88;5091746;28;20043;-35
2023/02/21 07:30:52;;;;;;;62.83;27.92;;;;;;;-143.48;100.00;118439.88;5091643;28;20374;-33
2023/02/21 07:33:17;;;;;;;56.05;28.35;;;;;;;-143.48;100.00;118439.88;5091829;28;20466;-34
2023/02/21 07:35:43;;;;;;;68.00;29.00;;;;;;;-143.48;100.00;118439.88;5090676;28;20174;-34
2023/02/21 07:38:08;;;;;;;69.00;29.80;;;;;;;-143.48;100.00;118439.88;5092340;28;20020;-34
2023/02/21 07:40:34;;;;;;;71.82;29.25;;;;;;;-143.48;100.00;118439.88;5093042;28;20051;-34
2023/02/21 07:43:01;;;;;;;58.40;29.27;;;;;;;-143.48;100.00;118439.88;5092485;28;20024;-34
2023/02/21 07:45:26;;;;;;;62.45;29.05;;;;;;;-143.48;100.00;118439.88;5092133;28;20047;-34
2023/02/21 07:47:52;;;;;;;63.03;27.98;;;;;;;-143.48;100.00;118439.88;5093786;28;20024;-35
2023/02/21 07:50:17;;;;;;;66.78;29.98;;;;;;;-143.48;100.00;118439.88;5093763;28;20585;-34
2023/02/21 07:52:44;;;;;;;59.47;29.58;;;;;;;-143.48;100.00;118439.88;5093715;28;20450;-36
2023/02/21 07:55:12;;;;;;;64.70;27.27;;;;;;;-143.48;100.00;118439.88;5093458;28;20383;-34
2023/02/21 07:57:37;;;;;;;69.32;27.88;;;;;;;-143.48;100.00;118439.88;5093313;28;20036;-35
2023/02/21 08:00:03;;;;;;;60.58;29.13;;;;;;;-143.48;100.00;118439.88;5093332;28;20054;-34
2023/02/21 08:02:29;;;;;;;73.22;29.98;;;;;;;-143.48;99.86;118439.88;5092161;28;20447;-35
2023/02/21 08:04:54;;;;;;;63.50;28.13;;;;;;;-143.48;99.80;118439.88;5093450;28;20071;-35
2023/02/21 08:07:19;;;;;;;62.55;28.27;;;;;;;-143.48;99.54;118439.88;5093433;28;20034;-37
2023/02/21 08:09:45;;;;;;;66.95;28.83;;;;;;;-143.48;100.00;118439.88;5091973;28;20374;-34
2023/02/21 08:12:11;;;;;;;65.65;28.90;;;;;;;-143.48;100.00;118439.88;5093638;28;20024;-35
2023/02/21 08:14:36;;;;;;;66.38;28.83;;;;;;;-143.48;100.00;118439.88;5093141;28;20099;-34
2023/02/21 08:17:01;;;;;;;69.68;29.20;;;;;;;-143.48;100.00;118439.88;5093188;28;20027;-34
2023/02/21 08:19:27;;;;;;;58.45;28.80;;;;;;;-143.48;99.90;118439.88;5093187;28;20028;-35
2023/02/21 08:21:52;;;;;;;73.40;27.52;;;;;;;-143.48;99.66;118439.88;5094922;28;20107;-34
2023/02/21 08:24:18;;;;;;;63.33;28.70;;;;;;;-143.48;99.75;118439.88;5097168;28;20455;-34
2023/02/21 08:26:44;;;;;;;75.93;28.45;;;;;;;-143.48;99.81;118439.88;5097480;28;20020;-34
2023/02/21 08:29:13;;;;;;;61.70;27.67;;;;;;;-143.48;99.67;118439.88;5097064;28;20024;-34
2023/02/21 08:31:39;;;;;;;62.83;29.25;;;;;;;-143.48;99.81;118439.88;5097674;28;20502;-34
2023/02/21 08:34:05;;;;;;;63.60;29.00;;;;;;;-143.48;99.81;118439.88;5097640;28;20031;-36
2023/02/21 08:36:35;;;;;;;66.90;29.27;;;;;;;-143.48;99.92;118439.88;5096968;28;20100;-34
2023/02/21 08:39:01;;;;;;;69.00;29.05;;;;;;;-143.48;99.59;118439.88;5097322;28;20377;-34
2023/02/21 08:41:41;;;;;;;69.28;29.35;;;;;;;-143.48;99.48;118439.88;5096762;28;20029;-34
2023/02/21 08:44:07;;;;;;;59.65;27.95;;;;;;;-143.48;99.42;118439.88;5096937;28;20044;-34
2023/02/21 08:46:34;;;;;;;59.97;28.13;;;;;;;-143.48;99.86;118439.88;5097060;28;20375;-34
2023/02/21 08:49:00;;;;;;;63.55;28.00;;;;;;;-143.48;99.80;118439.88;5096884;28;20482;-34
2023/02/21 08:51:27;;;;;;;63.75;29.33;;;;;;;-143.48;99.04;118439.88;5096781;28;20024;-34
2023/02/21 08:53:53;;;;;;;63.45;28.45;;;;;;;-143.48;98.95;118439.88;5096335;28;20547;-34
2023/02/21 08:56:23;;;;;;;64.00;27.10;;;;;;;-143.48;98.83;118439.88;5096474;28;20051;-33
2023/02/21 08:58:48;;;;;;;66.50;28.20;;;;;;;-143.48;98.66;118439.88;5096400;28;20119;-33
2023/02/21 09:01:14;;;;;;;65.68;28.10;;;;;;;-143.48;98.39;118439.88;5096618;28;20072;-33
2023/02/21 09:03:39;;;;;;;65.78;28.83;;;;;;;-143.48;99.10;118439.88;5096774;28;20024;-33
2023/02/21 09:06:06;;;;;;;65.00;30.05;;;;;;;-143.48;99.25;118439.88;5096963;28;20024;-34
2023/02/21 09:08:31;;;;;;;72.10;29.42;;;;;;;-143.48;99.11;118439.88;5096432;28;20394;-33
2023/02/21 09:11:00;;;;;;;66.38;28.98;;;;;;;-143.48;98.99;118439.88;5096671;28;20020;-33
2023/02/21 09:13:29;;;;;;;66.68;27.83;;;;;;;-143.48;98.88;118439.88;5096296;28;20024;-33
2023/02/21 09:15:55;;;;;;;65.53;28.58;;;;;;;-143.48;98.54;118439.88;5096337;28;20030;-34
2023/02/21 09:18:21;;;;;;;63.30;27.35;;;;;;;-143.48;98.51;118439.88;5095534;28;20020;-35
2023/02/21 09:20:50;;;;;;;64.38;28.02;;;;;;;-143.48;98.55;118439.88;5096804;28;20020;-34
2023/02/21 09:23:24;;;;;;;67.10;28.17;;;;;;;-143.48;98.27;118439.88;5096551;28;20028;-33
2023/02/21 09:25:49;;;;;;;63.63;28.13;;;;;;;-143.48;97.98;118439.88;5096726;28;20020;-34
2023/02/21 09:28:15;;;;;;;67.00;28.70;;;;;;;-143.48;98.57;118439.88;5096357;28;20158;-35
2023/02/21 09:30:41;;;;;;;63.53;29.13;;;;;;;-143.48;98.35;118439.88;5096116;28;20035;-36
2023/02/21 09:33:11;;;;;;;62.78;28.60;;;;;;;-143.48;98.19;118439.88;5094165;28;20487;-34
2023/02/21 09:35:37;;;;;;;60.97;28.27;;;;;;;-143.48;98.27;118439.88;5095983;28;20023;-35
2023/02/21 09:38:07;;;;;;;60.67;28.05;;;;;;;-143.48;97.88;118439.88;5095925;28;20454;-35
2023/02/21 09:40:51;;;;;;;68.70;26.90;;;;;;;-143.48;98.14;118439.88;5095946;28;20055;-35
2023/02/21 09:43:22;;;;;;;60.10;26.90;;;;;;;-143.48;97.89;118439.88;5094500;28;20028;-35
2023/02/21 09:45:54;;;;;;;64.63;26.60;;;;;;;-143.48;97.82;118439.88;5094197;28;20032;-35
2023/02/21 09:48:21;;;;;;;58.53;27.70;;;;;;;-143.48;98.14;118439.88;5095720;28;20020;-34
2023/02/21 09:50:50;;;;;;;64.00;29.30;;;;;;;-143.48;98.27;118439.88;5093285;28;20073;-34
2023/02/21 09:53:23;;;;;;;65.35;29.42;;;;;;;-143.48;98.66;118439.88;5095040;28;20032;-35
2023/02/21 09:55:52;;;;;;;59.08;28.48;;;;;;;-143.48;98.28;118439.88;5094931;28;20059;-34
2023/02/21 09:58:20;;;;;;;72.57;30.08;;;;;;;-143.48;98.39;118439.88;5094819;28;20052;-34
2023/02/21 10:00:45;;;;;;;67.70;30.05;;;;;;;-143.48;98.15;118439.88;5095106;28;20547;-34
2023/02/21 10:03:30;;;;;;;70.78;31.08;;;;;;;-143.48;98.35;118439.88;5092948;28;20028;-34
2023/02/21 10:06:05;;;;;;;64.55;29.92;;;;;;;-143.48;98.80;118439.88;5093967;28;20183;-35
2023/02/21 10:08:45;;;;;;;70.68;29.27;;;;;;;-143.48;98.35;118439.88;5095718;28;20035;-34
2023/02/21 10:11:39;;;;;;;70.18;30.20;;;;;;;-143.48;98.27;118439.88;5095237;28;20024;-34
2023/02/21 10:14:10;;;;;;;67.75;29.67;;;;;;;-143.48;98.61;118439.88;5095506;28;20446;-34
2023/02/21 10:16:41;;;;;;;66.90;29.25;;;;;;;-143.48;98.50;118439.88;5095413;28;20463;-35
2023/02/21 10:19:13;;;;;;;65.78;28.98;;;;;;;-143.48;98.02;118439.88;5095164;28;20103;-35
2023/02/21 10:21:43;;;;;;;63.67;28.90;;;;;;;-143.48;98.04;118439.88;5094290;28;20027;-35
2023/02/21 10:24:18;;;;;;;68.65;28.48;;;;;;;-143.48;97.28;118439.88;5094672;28;20027;-35
2023/02/21 10:27:03;;;;;;;64.00;28.25;;;;;;;-143.48;96.80;118439.88;5094921;28;20111;-35
2023/02/21 10:29:34;;;;;;;60.38;27.38;;;;;;;-143.48;96.60;118439.88;5095391;28;20027;-34
2023/02/21 10:32:02;;;;;;;64.20;29.98;;;;;;;-143.48;96.63;118439.88;5095037;28;20020;-34
2023/02/21 10:34:30;;;;;;;62.95;28.48;;;;;;;-143.48;96.75;118439.88;5095012;28;20028;-34
2023/02/21 10:37:03;;;;;;;61.53;28.40;;;;;;;-143.48;97.33;118439.88;5094595;28;20024;-35
2023/02/21 10:39:40;;;;;;;59.83;29.17;;;;;;;-143.48;97.71;118439.88;5094969;28;20055;-34
2023/02/21 10:42:13;;;;;;;62.97;28.55;;;;;;;-143.48;96.91;118439.88;5094794;28;20032;-35
2023/02/21 10:44:39;;;;;;;63.92;29.70;;;;;;;-143.48;97.03;118439.88;5093564;28;20048;-35
2023/02/21 10:47:18;;;;;;;62.13;28.58;;;;;;;-143.48;97.38;118439.88;5094122;28;20035;-35
2023/02/21 10:50:01;;;;;;;62.50;28.02;;;;;;;-143.48;97.11;118439.88;5094785;28;20471;-35
2023/02/21 10:52:26;;;;;;;59.90;28.33;;;;;;;-143.48;97.42;118439.88;5094664;28;20028;-34
2023/02/21 10:55:14;;;;;;;62.30;27.92;;;;;;;-143.48;96.97;118439.88;5094322;28;20012;-34
2023/02/21 10:57:42;;;;;;;62.05;27.80;;;;;;;-143.48;95.92;118439.88;5094568;28;20034;-33
2023/02/21 11:00:09;;;;;;;64.43;28.80;;;;;;;-143.48;95.84;118439.88;5094310;28;20043;-34
2023/02/21 11:02:39;;;;;;;68.07;29.50;;;;;;;-143.48;96.57;118439.88;5094261;28;20035;-34
2023/02/21 11:05:15;;;;;;;68.70;28.67;;;;;;;-143.48;96.82;118439.88;5094068;28;20027;-34
2023/02/21 11:07:54;;;;;;;66.55;29.23;;;;;;;-143.48;96.64;118439.88;5094640;28;20032;-34
2023/02/21 11:10:36;;;;;;;62.00;27.48;;;;;;;-143.48;96.60;118439.88;5094623;28;20058;-33
2023/02/21 11:13:08;;;;;;;64.93;28.58;;;;;;;-143.48;96.97;118439.88;5094041;28;20497;-35
2023/02/21 11:15:33;;;;;;;62.55;28.25;;;;;;;-143.48;96.73;118439.88;5094169;28;20490;-35
2023/02/21 11:18:26;;;;;;;69.47;29.85;;;;;;;-143.48;95.99;118439.88;5093207;28;20059;-35
2023/02/21 11:20:52;;;;;;;67.72;28.90;;;;;;;-143.48;96.06;118439.88;5085580;28;20371;-35
2023/02/21 11:23:27;;;;;;;64.50;28.38;;;;;;;-143.48;96.24;118439.88;5093977;28;20028;-34
2023/02/21 11:26:10;;;;;;;60.53;28.50;;;;;;;-143.48;97.18;118439.88;5093597;28;20055;-34
2023/02/21 11:28:42;;;;;;;65.60;30.05;;;;;;;-143.48;96.53;118439.88;5094055;28;20111;-35
2023/02/21 11:31:28;;;;;;;62.20;28.00;;;;;;;-143.48;96.47;118439.88;5093987;28;20375;-35
2023/02/21 11:34:02;;;;;;;66.93;28.58;;;;;;;-143.48;96.89;118439.88;5094046;28;20016;-34
2023/02/21 11:36:31;;;;;;;66.65;28.65;;;;;;;-143.48;97.22;118439.88;5093947;28;20027;-35
2023/02/21 11:39:17;;;;;;;62.00;28.67;;;;;;;-143.48;96.79;118439.88;5093643;28;20027;-35
2023/02/21 11:41:57;;;;;;;67.30;28.92;;;;;;;-143.48;96.75;118439.88;5094329;28;20020;-35
2023/02/21 11:44:24;;;;;;;62.95;28.50;;;;;;;-143.48;96.88;118439.88;5093506;28;20042;-35
2023/02/21 11:46:56;;;;;;;69.80;29.92;;;;;;;-143.48;97.02;118439.88;5091793;28;20028;-35
2023/02/21 11:49:32;;;;;;;62.17;28.00;;;;;;;-143.48;96.66;118439.88;5093523;28;20102;-34
2023/02/21 11:52:08;;;;;;;65.35;28.60;;;;;;;-143.48;96.18;118439.88;5093989;28;20035;-34
2023/02/21 11:54:34;;;;;;;70.70;29.75;;;;;;;-143.48;96.83;118439.88;5093524;28;20028;-35
2023/02/21 11:57:47;;;;;;;61.95;29.30;;;;;;;-143.48;96.62;118439.88;5091816;28;20032;-35
2023/02/21 12:00:39;;;;;;;62.08;28.35;;;;;;;-143.48;96.96;118439.88;5093978;28;20522;-35
2023/02/21 12:03:16;;;;;;;61.83;28.65;;;;;;;-143.48;97.25;118439.88;5093728;28;20426;-34
2023/02/21 12:06:05;;;;;;;65.40;30.10;;;;;;;-143.48;97.52;118439.88;5093574;28;20494;-35
2023/02/21 12:08:38;;;;;;;65.10;28.38;;;;;;;-143.48;97.67;118439.88;5093389;28;20535;-35
2023/02/21 12:11:27;;;;;;;65.15;27.98;;;;;;;-143.48;97.08;118439.88;5093737;28;20016;-35
2023/02/21 12:14:23;;;;;;;65.93;29.13;;;;;;;-143.48;98.12;118439.88;5092232;28;20390;-35
2023/02/21 12:17:26;;;;;;;63.72;27.63;;;;;;;-143.48;97.81;118439.88;5093578;28;20028;-35
2023/02/21 12:20:32;;;;;;;71.47;26.97;;;;;;;-143.48;97.83;118439.88;5093145;28;20044;-34
2023/02/21 12:23:11;;;;;;;64.28;28.48;;;;;;;-143.48;98.00;118439.88;5093239;28;20254;-35
2023/02/21 12:25:40;;;;;;;77.28;30.60;;;;;;;-143.48;98.48;118439.88;5093151;28;20115;-35
2023/02/21 12:28:29;;;;;;;82.22;30.88;;;;;;;-143.48;98.89;118439.88;5093950;28;20097;-34
2023/02/21 12:31:05;;;;;;;73.82;30.40;;;;;;;-143.48;98.92;118439.88;5093063;28;20105;-35
2023/02/21 12:33:43;;;;;;;90.78;32.47;;;;;;;-143.48;99.69;118439.88;5093620;28;20028;-34
2023/02/21 12:36:26;;;;;;;96.88;31.88;;;;;;;-143.48;100.00;118439.88;5093230;28;20028;-35
2023/02/21 12:39:00;;;;;;;;;;;;;;;-143.48;100.00;118439.88;5093835;28;20081;-35
2023/02/21 12:41:56;;;;;;;86.90;29.58;;;;;;;-143.48;100.00;118439.88;5093066;28;19998;-35
2023/02/21 12:44:53;;;;;;;80.68;30.10;;;;;;;-143.48;100.00;118439.88;5092163;28;20146;-35
2023/02/21 12:47:25;;;;;;;80.32;28.45;;;;;;;-143.48;100.00;118439.88;5092746;28;20035;-35
2023/02/21 12:49:59;;;;;;;79.85;28.92;;;;;;;-143.48;100.00;118439.88;5092993;28;20024;-34
2023/02/21 12:52:42;;;;;;;72.00;26.98;;;;;;;-143.48;100.00;118439.88;5092644;28;20497;-34
2023/02/21 12:55:23;;;;;;;65.45;25.75;;;;;;;-143.48;100.00;118439.88;5093119;28;20437;-34
2023/02/21 12:57:59;;;;;;;67.15;25.58;;;;;;;-143.48;100.00;118439.88;5093153;28;20020;-34
2023/02/21 13:00:35;;;;;;;58.50;23.48;;;;;;;-143.48;99.96;118439.88;5091281;28;20028;-34
2023/02/21 13:03:24;;;;;;;58.30;24.20;;;;;;;-143.48;99.47;118439.88;5092515;28;20020;-35
2023/02/21 13:05:56;;;;;;;66.68;25.40;;;;;;;-143.48;99.90;118439.88;5092349;28;20458;-34
2023/02/21 13:08:25;;;;;;;61.90;25.60;;;;;;;-143.48;100.00;118439.88;5093137;28;20028;-34
2023/02/21 13:10:54;;;;;;;56.88;24.80;;;;;;;-143.48;100.00;118439.88;5093934;28;20493;-34
2023/02/21 13:13:26;;;;;;;62.55;25.20;;;;;;;-143.48;100.00;118439.88;5094285;28;20034;-35
2023/02/21 13:15:52;;;;;;;58.97;24.25;;;;;;;-143.48;100.00;118439.88;5094369;28;20020;-36
2023/02/21 13:18:25;;;;;;;69.72;26.15;;;;;;;-143.48;100.00;118439.88;5094096;28;20028;-34
2023/02/21 13:21:15;;;;;;;58.90;24.33;;;;;;;-143.48;100.00;118439.88;5094167;28;20027;-33
2023/02/21 13:27:24;;;;;;;51.67;23.65;;;;;;;-143.48;100.00;118439.88;5095780;28;20035;-34